createdAt,value
2022-12-23T00:01:54.525Z,75.43
2022-12-23T00:04:21.911Z,78.47
2022-12-23T00:06:49.368Z,67.40
2022-12-23T00:09:17.269Z,69.75
2022-12-23T00:12:04.909Z,68.75
2022-12-23T00:14:51.281Z,70.10
2022-12-23T00:17:22.586Z,75.57
2022-12-23T00:22:18.561Z,78.72
2022-12-23T00:24:45.909Z,79.40
2022-12-23T00:27:13.249Z,79.13
2022-12-23T00:29:40.659Z,80.43
2022-12-23T00:32:08.653Z,74.65
2022-12-23T00:34:36.607Z,75.45
2022-12-23T00:37:04.308Z,72.90
2022-12-23T00:39:54.742Z,77.22
2022-12-23T00:42:40.898Z,75.75
2022-12-23T00:45:18.131Z,73.97
2022-12-23T00:48:05.319Z,74.18
2022-12-23T00:50:35.730Z,71.50
2022-12-23T00:53:03.696Z,80.55
2022-12-23T00:55:31.734Z,70.07
2022-12-23T00:57:59.264Z,73.18
2022-12-23T01:00:45.357Z,71.68
2022-12-23T01:03:33.142Z,76.18
2022-12-23T01:06:01.937Z,66.63
2022-12-23T01:08:29.297Z,69.18
2022-12-23T01:10:56.786Z,73.00
2022-12-23T01:13:24.233Z,66.35
2022-12-23T01:15:51.637Z,71.80
2022-12-23T01:18:18.971Z,68.35
2022-12-23T01:20:46.287Z,70.30
2022-12-23T01:23:13.675Z,77.15
2022-12-23T01:25:41.050Z,72.90
2022-12-23T01:28:08.484Z,74.00
2022-12-23T01:30:37.871Z,79.15
2022-12-23T01:33:05.389Z,74.30
2022-12-23T01:35:32.737Z,73.97
2022-12-23T01:38:00.172Z,73.28
2022-12-23T01:40:27.467Z,71.97
2022-12-23T01:42:55.445Z,73.70
2022-12-23T01:45:29.800Z,75.70
2022-12-23T01:48:21.402Z,74.55
2022-12-23T01:50:58.551Z,71.15
2022-12-23T01:53:33.113Z,74.35
2022-12-23T01:56:10.134Z,76.18
2022-12-23T01:58:46.979Z,81.07
2022-12-23T02:01:33.274Z,86.32
2022-12-23T02:04:10.186Z,76.75
2022-12-23T02:06:59.599Z,73.65
2022-12-23T02:09:28.965Z,73.32
2022-12-23T02:12:33.563Z,76.43
2022-12-23T02:15:30.711Z,77.15
2022-12-23T02:17:57.956Z,71.65
2022-12-23T02:20:44.375Z,75.43
2022-12-23T02:23:33.533Z,77.82
2022-12-23T02:26:38.041Z,79.90
2022-12-23T02:29:26.170Z,74.25
2022-12-23T02:31:53.878Z,78.13
2022-12-23T02:34:34.635Z,79.22
2022-12-23T02:37:08.110Z,72.05
2022-12-23T02:39:35.465Z,71.95
2022-12-23T02:42:11.580Z,78.25
2022-12-23T02:44:38.870Z,75.28
2022-12-23T02:47:11.611Z,85.95
2022-12-23T02:49:43.345Z,81.10
2022-12-23T02:52:15.365Z,75.65
2022-12-23T02:54:48.594Z,76.53
2022-12-23T02:57:21.691Z,72.43
2022-12-23T02:59:52.029Z,74.28
2022-12-23T03:02:19.681Z,79.55
2022-12-23T03:04:47.177Z,77.68
2022-12-23T03:07:24.095Z,83.72
2022-12-23T03:09:59.474Z,79.28
2022-12-23T03:12:56.981Z,81.10
2022-12-23T03:15:41.703Z,80.25
2022-12-23T03:18:19.378Z,79.40
2022-12-23T03:20:57.566Z,77.90
2022-12-23T03:23:42.050Z,78.25
2022-12-23T03:26:18.905Z,80.20
2022-12-23T03:28:48.919Z,84.13
2022-12-23T03:31:29.084Z,80.25
2022-12-23T03:34:10.386Z,79.97
2022-12-23T03:36:57.553Z,84.30
2022-12-23T03:39:31.068Z,79.97
2022-12-23T03:42:07.460Z,81.80
2022-12-23T03:45:03.637Z,83.97
2022-12-23T03:47:37.422Z,78.20
2022-12-23T03:50:17.383Z,76.93
2022-12-23T03:52:55.506Z,87.45
2022-12-23T03:55:33.017Z,78.90
2022-12-23T03:58:03.377Z,84.05
2022-12-23T04:00:36.185Z,82.40
2022-12-23T04:03:19.828Z,80.00
2022-12-23T04:05:57.952Z,84.55
2022-12-23T04:08:35.297Z,84.38
2022-12-23T04:11:03.451Z,84.55
2022-12-23T04:13:31.284Z,83.63
2022-12-23T04:16:00.312Z,82.10
2022-12-23T04:18:28.923Z,84.72
2022-12-23T04:20:56.247Z,84.00
2022-12-23T04:23:24.291Z,87.97
2022-12-23T04:25:51.579Z,84.78
2022-12-23T04:28:18.883Z,83.65
2022-12-23T04:30:46.258Z,84.72
2022-12-23T04:33:13.574Z,81.45
2022-12-23T04:35:41.301Z,80.43
2022-12-23T04:38:08.629Z,80.35
2022-12-23T04:40:35.960Z,82.80
2022-12-23T04:43:03.395Z,81.97
2022-12-23T04:45:32.509Z,82.45
2022-12-23T04:47:59.845Z,77.93
2022-12-23T04:50:27.213Z,79.80
2022-12-23T04:52:54.730Z,80.72
2022-12-23T04:55:22.559Z,88.90
2022-12-23T04:57:50.235Z,94.93
2022-12-23T05:00:18.016Z,82.70
2022-12-23T05:02:46.009Z,89.25
2022-12-23T05:05:13.468Z,79.78
2022-12-23T05:07:42.999Z,79.38
2022-12-23T05:10:10.682Z,80.45
2022-12-23T05:12:39.208Z,83.45
2022-12-23T05:15:07.786Z,83.80
2022-12-23T05:17:36.166Z,83.20
2022-12-23T05:20:04.054Z,82.93
2022-12-23T05:22:31.427Z,87.10
2022-12-23T05:24:59.287Z,88.32
2022-12-23T05:27:26.597Z,86.95
2022-12-23T05:29:53.916Z,84.05
2022-12-23T05:32:21.350Z,82.65
2022-12-23T05:34:48.641Z,77.72
2022-12-23T05:37:16.484Z,81.47
2022-12-23T05:39:43.804Z,80.53
2022-12-23T05:42:11.195Z,76.40
2022-12-23T05:44:38.520Z,78.40
2022-12-23T05:47:05.948Z,78.90
2022-12-23T05:49:33.389Z,75.43
2022-12-23T05:52:01.252Z,82.28
2022-12-23T05:54:28.575Z,78.75
2022-12-23T05:56:55.971Z,82.28
2022-12-23T05:59:27.650Z,78.40
2022-12-23T06:01:58.734Z,78.65
2022-12-23T06:04:26.325Z,82.10
2022-12-23T06:06:54.125Z,82.07
2022-12-23T06:09:21.403Z,80.47
2022-12-23T06:11:48.866Z,83.13
2022-12-23T06:14:16.262Z,78.50
2022-12-23T06:16:44.237Z,85.88
2022-12-23T06:19:11.596Z,86.43
2022-12-23T06:21:39.017Z,80.40
2022-12-23T06:24:06.864Z,86.25
2022-12-23T06:26:35.949Z,84.63
2022-12-23T06:29:04.160Z,82.30
2022-12-23T06:31:31.550Z,79.50
2022-12-23T06:33:58.877Z,83.53
2022-12-23T06:36:26.145Z,82.28
2022-12-23T06:38:53.503Z,81.97
2022-12-23T06:41:21.894Z,81.03
2022-12-23T06:43:54.157Z,86.55
2022-12-23T06:46:21.867Z,86.68
2022-12-23T06:48:49.302Z,82.68
2022-12-23T06:51:17.102Z,83.45
2022-12-23T06:53:44.785Z,87.45
2022-12-23T06:56:12.253Z,87.57
2022-12-23T06:58:39.609Z,83.50
2022-12-23T07:01:06.966Z,85.88
2022-12-23T07:03:35.141Z,93.32
2022-12-23T07:06:02.882Z,82.97
2022-12-23T07:08:30.163Z,78.18
2022-12-23T07:11:03.375Z,80.85
2022-12-23T07:13:32.523Z,82.53
2022-12-23T07:16:06.030Z,83.75
2022-12-23T07:18:33.584Z,89.20
2022-12-23T07:21:01.601Z,89.72
2022-12-23T07:23:29.531Z,92.03
2022-12-23T07:25:57.458Z,86.50
2022-12-23T07:28:25.390Z,84.80
2022-12-23T07:30:52.696Z,85.22
2022-12-23T07:33:19.978Z,83.10
2022-12-23T07:35:47.289Z,84.55
2022-12-23T07:38:14.719Z,89.85
2022-12-23T07:40:42.479Z,97.50
2022-12-23T07:43:10.665Z,85.63
2022-12-23T07:45:38.148Z,88.70
2022-12-23T07:48:06.133Z,91.50
2022-12-23T07:50:33.477Z,87.10
2022-12-23T07:53:01.413Z,93.93
2022-12-23T07:55:28.693Z,84.40
2022-12-23T07:57:56.046Z,84.38
2022-12-23T08:00:23.564Z,83.45
2022-12-23T08:02:51.432Z,78.63
2022-12-23T08:05:19.361Z,85.78
2022-12-23T08:07:46.694Z,97.57
2022-12-23T08:10:14.079Z,103.82
2022-12-23T08:12:41.456Z,96.95
2022-12-23T08:15:09.374Z,111.45
2022-12-23T08:17:37.196Z,101.13
2022-12-23T08:20:05.392Z,91.78
2022-12-23T08:22:32.798Z,95.70
2022-12-23T08:25:00.540Z,96.10
2022-12-23T08:27:28.038Z,93.72
2022-12-23T08:29:55.965Z,91.95
2022-12-23T08:32:27.080Z,94.70
2022-12-23T08:34:57.404Z,100.90
2022-12-23T08:37:25.423Z,106.30
2022-12-23T08:39:52.986Z,99.32
2022-12-23T08:42:20.653Z,108.15
2022-12-23T08:44:47.958Z,95.03
2022-12-23T08:47:15.417Z,104.45
2022-12-23T08:49:42.725Z,96.10
2022-12-23T08:52:10.594Z,102.82
2022-12-23T08:54:37.874Z,93.90
2022-12-23T08:57:05.222Z,94.78
2022-12-23T08:59:32.651Z,96.95
2022-12-23T09:02:02.036Z,96.15
2022-12-23T09:04:30.083Z,90.30
2022-12-23T09:06:57.429Z,103.55
2022-12-23T09:09:24.958Z,97.03
2022-12-23T09:11:52.288Z,88.00
2022-12-23T09:14:20.190Z,88.63
2022-12-23T09:16:51.115Z,92.10
2022-12-23T09:19:18.828Z,95.53
2022-12-23T09:21:46.577Z,95.50
2022-12-23T09:24:14.346Z,99.10
2022-12-23T09:26:41.716Z,100.72
2022-12-23T09:29:09.274Z,91.40
2022-12-23T09:31:38.066Z,91.93
2022-12-23T09:34:06.151Z,95.25
2022-12-23T09:36:33.697Z,92.82
2022-12-23T09:39:01.451Z,92.10
2022-12-23T09:41:34.873Z,93.00
2022-12-23T09:44:44.345Z,95.50
2022-12-23T09:47:18.186Z,95.10
2022-12-23T09:49:50.881Z,100.70
2022-12-23T09:52:25.320Z,97.60
2022-12-23T09:54:55.457Z,93.65
2022-12-23T09:57:35.293Z,101.28
2022-12-23T10:00:17.007Z,97.60
2022-12-23T10:03:12.373Z,93.35
2022-12-23T10:06:03.647Z,86.55
2022-12-23T10:08:45.924Z,88.60
2022-12-23T10:11:14.906Z,89.38
2022-12-23T10:13:46.291Z,100.05
2022-12-23T10:16:20.373Z,95.10
2022-12-23T10:18:53.899Z,101.28
2022-12-23T10:21:24.228Z,102.75
2022-12-23T10:24:03.744Z,101.95
2022-12-23T10:26:39.237Z,98.45
2022-12-23T10:29:16.944Z,115.03
2022-12-23T10:32:01.371Z,111.53
2022-12-23T10:34:46.381Z,112.43
2022-12-23T10:37:22.705Z,118.25
2022-12-23T10:40:29.128Z,112.75
2022-12-23T10:43:34.920Z,114.78
2022-12-23T10:46:15.373Z,120.95
2022-12-23T10:48:55.246Z,124.25
2022-12-23T10:51:29.780Z,120.60
2022-12-23T10:54:03.761Z,120.57
2022-12-23T10:56:32.174Z,112.55
2022-12-23T10:59:00.720Z,119.70
2022-12-23T11:01:32.316Z,113.45
2022-12-23T11:04:08.436Z,114.60
2022-12-23T11:06:42.480Z,115.35
2022-12-23T11:09:24.259Z,110.60
2022-12-23T11:11:56.378Z,119.95
2022-12-23T11:14:43.119Z,113.50
2022-12-23T11:17:32.025Z,118.32
2022-12-23T11:20:15.442Z,112.82
2022-12-23T11:22:47.456Z,115.05
2022-12-23T11:25:39.131Z,112.68
2022-12-23T11:28:19.515Z,113.90
2022-12-23T11:30:56.753Z,109.07
2022-12-23T11:33:28.390Z,112.15
2022-12-23T11:36:04.958Z,116.85
2022-12-23T11:38:33.897Z,112.55
2022-12-23T11:41:01.697Z,119.25
2022-12-23T11:43:30.332Z,116.53
2022-12-23T11:46:24.263Z,104.10
2022-12-23T11:49:24.075Z,112.97
2022-12-23T11:52:05.295Z,101.82
2022-12-23T11:54:33.987Z,104.80
2022-12-23T11:57:07.961Z,101.22
2022-12-23T11:59:48.785Z,90.70
2022-12-23T12:02:22.435Z,99.53
2022-12-23T12:05:04.867Z,97.70
2022-12-23T12:07:33.628Z,107.07
2022-12-23T12:10:02.390Z,99.07
2022-12-23T12:12:30.561Z,103.65
2022-12-23T12:14:59.910Z,97.45
2022-12-23T12:17:42.220Z,92.75
2022-12-23T12:20:18.609Z,94.85
2022-12-23T12:23:01.585Z,98.72
2022-12-23T12:25:42.528Z,98.03
2022-12-23T12:28:18.612Z,104.13
2022-12-23T12:31:45.153Z,100.75
2022-12-23T12:34:27.272Z,99.43
2022-12-23T12:37:08.779Z,102.45
2022-12-23T12:39:43.129Z,95.28
2022-12-23T12:42:29.398Z,92.75
2022-12-23T12:45:10.260Z,108.68
2022-12-23T12:47:58.473Z,93.35
2022-12-23T12:50:34.629Z,97.05
2022-12-23T12:53:12.426Z,100.05
2022-12-23T12:55:49.022Z,99.03
2022-12-23T12:58:21.093Z,91.55
2022-12-23T13:00:57.185Z,94.45
2022-12-23T13:04:08.856Z,96.10
2022-12-23T13:07:06.286Z,104.97
2022-12-23T13:09:36.262Z,89.25
2022-12-23T13:12:38.165Z,98.30
2022-12-23T13:15:29.649Z,99.85
2022-12-23T13:18:16.437Z,96.07
2022-12-23T13:21:12.662Z,94.90
2022-12-23T13:23:52.081Z,102.88
2022-12-23T13:26:43.032Z,111.40
2022-12-23T13:29:22.664Z,112.10
2022-12-23T13:32:01.810Z,100.30
2022-12-23T13:34:54.178Z,102.82
2022-12-23T13:37:36.277Z,99.90
2022-12-23T13:40:35.023Z,108.75
2022-12-23T13:43:11.434Z,97.50
2022-12-23T13:45:40.815Z,107.40
2022-12-23T13:48:53.582Z,100.05
2022-12-23T13:51:37.801Z,109.60
2022-12-23T13:54:20.982Z,101.57
2022-12-23T13:57:25.410Z,103.10
2022-12-23T14:00:06.185Z,91.18
2022-12-23T14:02:54.325Z,95.90
2022-12-23T14:08:20.112Z,94.68
2022-12-23T14:11:11.384Z,97.32
2022-12-23T14:13:51.424Z,99.93
2022-12-23T14:16:42.365Z,112.18
2022-12-23T14:19:19.239Z,110.53
2022-12-23T14:21:54.277Z,109.28
2022-12-23T14:24:43.031Z,107.10
2022-12-23T14:27:35.705Z,100.20
2022-12-23T14:30:21.914Z,96.93
2022-12-23T14:32:57.394Z,94.07
2022-12-23T14:35:27.657Z,101.88
2022-12-23T14:38:16.851Z,91.32
2022-12-23T14:41:19.008Z,88.32
2022-12-23T14:43:46.310Z,90.60
2022-12-23T14:46:35.509Z,89.28
2022-12-23T14:49:37.448Z,91.40
2022-12-23T14:51:51.044Z,94.90
2022-12-23T14:54:38.296Z,93.80
2022-12-23T14:57:16.257Z,101.43
2022-12-23T14:59:52.309Z,94.05
2022-12-23T15:02:54.002Z,90.10
2022-12-23T15:05:24.052Z,90.28
2022-12-23T15:07:55.969Z,89.13
2022-12-23T15:12:57.527Z,88.72
2022-12-23T15:15:27.266Z,89.75
2022-12-23T15:18:03.603Z,102.07
2022-12-23T15:20:31.376Z,92.50
2022-12-23T15:23:11.862Z,96.35
2022-12-23T15:25:43.586Z,100.22
2022-12-23T15:30:51.753Z,114.80
2022-12-23T15:34:01.486Z,119.60
2022-12-23T15:36:15.232Z,110.82
2022-12-23T15:38:43.082Z,123.22
2022-12-23T15:41:16.091Z,106.63
2022-12-23T15:43:43.719Z,109.45
2022-12-23T15:46:29.130Z,162.57
2022-12-23T15:48:58.198Z,160.23
2022-12-23T15:54:26.989Z,137.45
2022-12-23T15:56:57.231Z,129.65
2022-12-23T15:59:36.629Z,128.05
2022-12-23T16:05:31.140Z,123.63
2022-12-23T16:08:28.224Z,123.78
2022-12-23T16:10:56.830Z,125.40
2022-12-23T16:13:25.700Z,127.47
2022-12-23T16:15:53.471Z,138.50
2022-12-23T16:18:23.995Z,137.63
2022-12-23T16:21:01.869Z,133.82
2022-12-23T16:23:30.810Z,135.93
2022-12-23T16:26:00.336Z,114.30
2022-12-23T16:28:41.009Z,118.93
2022-12-23T16:31:11.291Z,111.20
2022-12-23T16:33:47.708Z,115.35
2022-12-23T16:36:19.081Z,114.20
2022-12-23T16:38:49.031Z,126.10
2022-12-23T16:41:17.033Z,131.57
2022-12-23T16:43:51.495Z,129.18
2022-12-23T16:46:22.196Z,149.07
2022-12-23T16:48:57.516Z,157.25
2022-12-23T16:51:27.165Z,145.05
2022-12-23T16:53:57.463Z,149.18
2022-12-23T16:56:28.776Z,154.57
2022-12-23T16:58:56.997Z,157.13
2022-12-23T17:01:29.006Z,154.20
2022-12-23T17:03:56.615Z,147.30
2022-12-23T17:06:24.467Z,155.10
2022-12-23T17:08:53.191Z,134.48
2022-12-23T17:11:29.213Z,140.40
2022-12-23T17:14:03.890Z,160.27
2022-12-23T17:16:33.779Z,149.60
2022-12-23T17:19:01.882Z,151.98
2022-12-23T17:21:36.671Z,146.38
2022-12-23T17:24:04.502Z,150.80
2022-12-23T17:26:32.016Z,143.50
2022-12-23T17:28:59.308Z,134.43
2022-12-23T17:31:27.487Z,142.10
2022-12-23T17:33:55.282Z,125.20
2022-12-23T17:36:23.084Z,134.40
2022-12-23T17:38:50.444Z,138.00
2022-12-23T17:41:35.893Z,126.15
2022-12-23T17:44:04.605Z,128.15
2022-12-23T17:46:32.989Z,124.35
2022-12-23T17:49:00.819Z,137.52
2022-12-23T17:51:28.124Z,123.80
2022-12-23T17:53:58.045Z,130.63
2022-12-23T17:56:28.720Z,195.38
2022-12-23T17:58:56.238Z,136.05
2022-12-23T18:01:29.911Z,126.15
2022-12-23T18:04:00.254Z,128.88
2022-12-23T18:06:29.148Z,117.68
2022-12-23T18:08:57.743Z,115.43
2022-12-23T18:11:36.725Z,120.53
2022-12-23T18:14:04.336Z,124.32
2022-12-23T18:16:31.830Z,139.38
2022-12-23T18:19:00.045Z,118.43
2022-12-23T18:21:28.652Z,128.30
2022-12-23T18:23:58.732Z,118.97
2022-12-23T18:26:26.329Z,128.13
2022-12-23T18:28:54.257Z,122.35
2022-12-23T18:31:24.284Z,124.35
2022-12-23T18:33:52.827Z,128.60
2022-12-23T18:36:25.143Z,118.65
2022-12-23T18:38:53.316Z,136.25
2022-12-23T18:41:22.117Z,127.40
2022-12-23T18:43:51.064Z,121.32
2022-12-23T18:46:20.167Z,122.13
2022-12-23T18:48:48.166Z,131.02
2022-12-23T18:51:17.412Z,124.30
2022-12-23T18:53:45.715Z,137.77
2022-12-23T18:56:14.938Z,148.20
2022-12-23T18:58:42.919Z,128.52
2022-12-23T19:01:12.347Z,119.47
2022-12-23T19:03:40.545Z,133.40
2022-12-23T19:06:09.982Z,133.63
2022-12-23T19:08:38.720Z,119.57
2022-12-23T19:11:19.136Z,119.82
2022-12-23T19:13:47.147Z,120.72
2022-12-23T19:16:20.611Z,117.00
2022-12-23T19:18:48.991Z,133.23
2022-12-23T19:21:17.862Z,117.25
2022-12-23T19:23:45.209Z,114.57
2022-12-23T19:26:14.834Z,124.40
2022-12-23T19:28:42.563Z,109.57
2022-12-23T19:31:14.736Z,113.47
2022-12-23T19:33:44.000Z,111.88
2022-12-23T19:36:17.466Z,112.55
2022-12-23T19:38:45.277Z,119.07
2022-12-23T19:41:13.216Z,112.43
2022-12-23T19:43:43.986Z,110.35
2022-12-23T19:46:13.052Z,112.72
2022-12-23T19:48:40.624Z,118.93
2022-12-23T19:51:11.426Z,124.53
2022-12-23T19:53:40.648Z,120.90
2022-12-23T19:56:17.209Z,119.00
2022-12-23T19:58:44.696Z,131.73
2022-12-23T20:01:16.130Z,131.57
2022-12-23T20:03:45.432Z,119.60
2022-12-23T20:06:20.095Z,132.02
2022-12-23T20:08:48.871Z,136.90
2022-12-23T20:11:19.580Z,121.53
2022-12-23T20:13:52.329Z,130.20
2022-12-23T20:16:20.936Z,129.13
2022-12-23T20:18:49.317Z,131.35
2022-12-23T20:21:16.789Z,131.38
2022-12-23T20:23:44.279Z,123.07
2022-12-23T20:26:16.137Z,140.00
2022-12-23T20:31:20.689Z,133.98
2022-12-23T20:33:49.384Z,129.07
2022-12-23T20:36:22.065Z,118.15
2022-12-23T20:38:50.730Z,128.38
2022-12-23T20:41:21.011Z,130.77
2022-12-23T20:44:02.750Z,128.10
2022-12-23T20:46:36.099Z,131.30
2022-12-23T20:49:04.530Z,119.15
2022-12-23T20:51:31.838Z,119.20
2022-12-23T20:54:00.030Z,117.43
2022-12-23T20:56:29.328Z,113.15
2022-12-23T20:58:59.015Z,122.70
2022-12-23T21:01:27.201Z,133.75
2022-12-23T21:03:56.467Z,123.82
2022-12-23T21:06:24.822Z,122.45
2022-12-23T21:08:55.533Z,136.02
2022-12-23T21:11:23.451Z,139.00
2022-12-23T21:13:51.881Z,126.75
2022-12-23T21:16:20.514Z,132.63
2022-12-23T21:18:52.620Z,122.18
2022-12-23T21:21:23.594Z,120.80
2022-12-23T21:23:50.986Z,125.77
2022-12-23T21:26:21.048Z,120.78
2022-12-23T21:28:49.340Z,122.20
2022-12-23T21:31:20.016Z,124.13
2022-12-23T21:33:49.073Z,123.03
2022-12-23T21:36:20.446Z,118.10
2022-12-23T21:38:49.404Z,121.68
2022-12-23T21:41:23.143Z,129.23
2022-12-23T21:43:51.846Z,112.65
2022-12-23T21:46:22.263Z,110.93
2022-12-23T21:48:50.073Z,114.45
2022-12-23T21:51:23.495Z,117.43
2022-12-23T21:53:52.723Z,118.85
2022-12-23T21:56:22.280Z,132.63
2022-12-23T21:58:50.053Z,119.35
2022-12-23T22:01:20.725Z,131.98
2022-12-23T22:03:49.561Z,118.18
2022-12-23T22:06:20.985Z,118.78
2022-12-23T22:08:49.320Z,118.72
2022-12-23T22:11:28.009Z,116.95
2022-12-23T22:13:57.817Z,122.47
2022-12-23T22:16:27.251Z,128.68
2022-12-23T22:18:55.986Z,126.35
2022-12-23T22:21:25.449Z,124.05
2022-12-23T22:23:54.317Z,114.90
2022-12-23T22:26:26.166Z,114.55
2022-12-23T22:28:58.757Z,116.18
2022-12-23T22:31:33.160Z,112.07
2022-12-23T22:34:01.397Z,119.75
2022-12-23T22:36:30.363Z,115.55
2022-12-23T22:39:01.124Z,112.75
2022-12-23T22:41:30.078Z,114.45
2022-12-23T22:43:58.590Z,120.10
2022-12-23T22:46:26.889Z,113.78
2022-12-23T22:48:54.523Z,119.10
2022-12-23T22:51:28.680Z,123.65
2022-12-23T22:53:57.136Z,126.22
2022-12-23T22:56:25.666Z,124.22
2022-12-23T22:58:54.219Z,123.53
2022-12-23T23:01:30.806Z,120.65
2022-12-23T23:04:00.474Z,126.10
2022-12-23T23:06:34.692Z,126.63
2022-12-23T23:09:02.385Z,148.07
2022-12-23T23:11:29.711Z,133.07
2022-12-23T23:13:57.047Z,131.65
2022-12-23T23:16:25.299Z,127.40
2022-12-23T23:18:53.521Z,125.78
2022-12-23T23:21:21.941Z,124.18
2022-12-23T23:23:49.952Z,124.68
2022-12-23T23:26:18.158Z,124.15
2022-12-23T23:28:45.794Z,128.85
2022-12-23T23:34:01.302Z,124.78
2022-12-23T23:36:29.167Z,119.22
2022-12-23T23:38:56.576Z,121.45
2022-12-23T23:41:24.374Z,112.95
2022-12-23T23:45:00.095Z,119.72
2022-12-23T23:47:51.496Z,112.15
2022-12-23T23:50:19.004Z,110.20
2022-12-23T23:52:46.850Z,110.72
2022-12-23T23:55:14.141Z,110.43
2022-12-23T23:57:41.547Z,123.32
